Terminal Aerodrome Forecast
Issued by NWS

Home | Current Version | Previous Version | Text Only | Print | Product List | Glossary On
Versions: 1 2 3 4 5 6 7 8 9 10 11 12 13 14 15 16 17 18 19 20 21 22 23 24 25 26 27 28 29 30
000
FTUS42 KJAX 010551
TAFCRG
TAF
KCRG 010551Z 0106/0206 00000KT P6SM SCT120 BKN250
     FM011300 20006KT P6SM SCT025 BKN070 OVC250
     FM011800 13009KT P6SM VCTS SCT020 BKN035CB BKN120 PROB30
      0122/0202 VRB15G25KT 3SM +TSRA BR SCT015 BKN025CB OVC070
     FM020200 16003KT P6SM SCT040 BKN150=

USA.gov is the U.S. government's official web portal to all federal, state and local government web resources and services.